Elbow Lake, Minnesota
Current Conditions -  °F | °C
As of 2:38 AM on Friday 28 Nov 2014 (Local Time) from KY63 Reporting Station
Haze Haze  
Wind Chill: -23°   Ceiling: 4400
Heat Index: -13°   Visibility: 5mi
Dew Point: -16°   Wind: 16mph
Humidity: 79%   Direction: 140°SE
Pressure: 30.01"   Gusts: 20mph
Location:  45.99°N, 95.98°W
Report Text: KY63 280838Z AUTO 14014G17KT 5SM HZ OVC044 M13/M16 A3001 RMK AO2 T11301159
Loading
Personal Weather Stations






























Interactive Weather Map New forecast layout! Learn more

10-Day Weather Forecast

Advertisements
Track Severe Weather on mobile